createdAt,value
2024-05-09T00:01:03.586Z,89.10
2024-05-09T00:03:33.758Z,89.10
2024-05-09T00:06:04.094Z,89.20
2024-05-09T00:08:37.136Z,89.40
2024-05-09T00:11:07.561Z,89.40
2024-05-09T00:13:37.799Z,89.40
2024-05-09T00:16:08.278Z,89.40
2024-05-09T00:18:38.664Z,89.80
2024-05-09T00:21:09.335Z,89.70
2024-05-09T00:23:42.376Z,89.90
2024-05-09T00:26:12.534Z,89.80
2024-05-09T00:28:42.957Z,90.20
2024-05-09T00:31:13.304Z,90.30
2024-05-09T00:33:43.224Z,90.20
2024-05-09T00:36:13.437Z,90.30
2024-05-09T00:38:47.441Z,90.20
2024-05-09T00:41:19.647Z,90.20
2024-05-09T00:43:49.902Z,90.10
2024-05-09T00:46:19.936Z,90.20
2024-05-09T00:48:50.081Z,90.10
2024-05-09T00:51:20.580Z,90.00
2024-05-09T00:53:53.190Z,90.20
2024-05-09T00:56:23.914Z,90.10
2024-05-09T00:58:54.619Z,90.20
2024-05-09T01:01:26.842Z,90.20
2024-05-09T01:03:57.312Z,90.20
2024-05-09T01:06:27.539Z,90.30
2024-05-09T01:09:00.321Z,90.30
2024-05-09T01:11:35.953Z,90.40
2024-05-09T01:14:06.194Z,90.30
2024-05-09T01:16:36.139Z,90.40
2024-05-09T01:19:07.514Z,90.50
2024-05-09T01:21:37.701Z,90.50
2024-05-09T01:24:11.211Z,90.60
2024-05-09T01:26:41.425Z,90.50
2024-05-09T01:29:11.638Z,90.50
2024-05-09T01:31:41.748Z,90.70
2024-05-09T01:34:11.995Z,90.60
2024-05-09T01:36:42.134Z,90.60
2024-05-09T01:39:14.926Z,90.80
2024-05-09T01:41:45.017Z,90.60
2024-05-09T01:44:14.854Z,90.70
2024-05-09T01:46:45.131Z,90.70
2024-05-09T01:49:15.464Z,90.70
2024-05-09T01:51:45.422Z,90.70
2024-05-09T01:54:17.879Z,90.50
2024-05-09T01:56:47.698Z,90.50
2024-05-09T01:59:17.850Z,90.40
2024-05-09T02:01:56.601Z,90.60
2024-05-09T02:04:27.807Z,90.50
2024-05-09T02:06:58.067Z,90.60
2024-05-09T02:09:30.846Z,90.60
2024-05-09T02:12:01.316Z,90.60
2024-05-09T02:14:31.376Z,90.50
2024-05-09T02:17:01.748Z,90.60
2024-05-09T02:19:32.087Z,90.50
2024-05-09T02:22:02.211Z,90.70
2024-05-09T02:24:35.008Z,90.60
2024-05-09T02:27:05.148Z,90.60
2024-05-09T02:29:35.497Z,90.70
2024-05-09T02:32:05.539Z,90.80
2024-05-09T02:34:34.044Z,90.70
2024-05-09T02:37:04.215Z,90.80
2024-05-09T02:39:34.566Z,90.80
2024-05-09T02:42:04.712Z,90.80
2024-05-09T02:44:31.986Z,91.00
2024-05-09T02:47:02.192Z,91.20
2024-05-09T02:49:29.570Z,91.10
2024-05-09T02:51:59.651Z,91.10
2024-05-09T02:54:26.920Z,91.00
2024-05-09T02:56:59.436Z,91.00
2024-05-09T02:59:26.722Z,91.00
2024-05-09T03:01:56.972Z,90.90
2024-05-09T03:04:24.275Z,91.00
2024-05-09T03:06:54.381Z,91.00
2024-05-09T03:09:23.973Z,91.10
2024-05-09T03:11:54.792Z,91.10
2024-05-09T03:14:25.280Z,91.10
2024-05-09T03:16:55.429Z,91.00
2024-05-09T03:19:22.838Z,91.00
2024-05-09T03:21:53.037Z,91.00
2024-05-09T03:24:20.286Z,91.10
2024-05-09T03:26:50.130Z,91.20
2024-05-09T03:29:17.431Z,91.20
2024-05-09T03:31:50.471Z,91.20
2024-05-09T03:34:17.734Z,91.30
2024-05-09T03:36:48.449Z,91.20
2024-05-09T03:39:18.587Z,91.40
2024-05-09T03:41:48.710Z,91.30
2024-05-09T03:44:18.621Z,91.30
2024-05-09T03:46:51.535Z,91.20
2024-05-09T03:49:19.290Z,91.50
2024-05-09T03:51:49.752Z,91.40
2024-05-09T03:54:16.971Z,91.40
2024-05-09T03:56:47.072Z,91.30
2024-05-09T03:59:14.301Z,91.40
2024-05-09T04:01:44.807Z,91.20
2024-05-09T04:04:14.965Z,91.10
2024-05-09T04:06:45.183Z,91.00
2024-05-09T04:09:12.483Z,91.10
2024-05-09T04:11:42.355Z,91.00
2024-05-09T04:14:09.663Z,91.00
2024-05-09T04:16:39.521Z,90.90
2024-05-09T04:19:06.818Z,90.80
2024-05-09T04:21:39.353Z,90.90
2024-05-09T04:24:06.572Z,91.10
2024-05-09T04:26:36.813Z,91.10
2024-05-09T04:29:04.104Z,91.10
2024-05-09T04:31:38.697Z,91.10
2024-05-09T04:34:06.167Z,91.10
2024-05-09T04:36:36.418Z,91.00
2024-05-09T04:39:06.285Z,91.00
2024-05-09T04:41:36.202Z,91.00
2024-05-09T04:44:03.588Z,90.80
2024-05-09T04:46:33.640Z,90.90
2024-05-09T04:49:01.084Z,90.70
2024-05-09T04:51:31.303Z,90.60
2024-05-09T04:53:58.507Z,90.70
2024-05-09T04:56:31.717Z,90.80
2024-05-09T04:58:59.131Z,90.70
2024-05-09T05:01:29.344Z,90.70
2024-05-09T05:03:57.154Z,90.90
2024-05-09T05:06:27.406Z,90.90
2024-05-09T05:08:54.734Z,90.80
2024-05-09T05:11:24.986Z,90.40
2024-05-09T05:13:55.167Z,90.50
2024-05-09T05:16:25.322Z,90.60
2024-05-09T05:18:52.591Z,90.30
2024-05-09T05:21:22.948Z,89.90
2024-05-09T05:23:50.224Z,89.90
2024-05-09T05:26:20.573Z,89.30
2024-05-09T05:28:48.006Z,88.90
2024-05-09T05:31:20.839Z,88.60
2024-05-09T05:33:48.974Z,88.70
2024-05-09T05:36:18.971Z,88.50
2024-05-09T05:38:49.285Z,88.00
2024-05-09T05:41:16.670Z,87.40
2024-05-09T05:43:46.813Z,87.20
2024-05-09T05:46:14.048Z,87.70
2024-05-09T05:48:46.908Z,87.50
2024-05-09T05:51:14.313Z,86.70
2024-05-09T05:53:44.615Z,86.60
2024-05-09T05:56:11.924Z,86.30
2024-05-09T05:58:43.195Z,85.50
2024-05-09T06:01:10.451Z,85.40
2024-05-09T06:03:40.451Z,85.00
2024-05-09T06:06:10.619Z,83.90
2024-05-09T06:08:40.524Z,83.60
2024-05-09T06:11:08.031Z,83.50
2024-05-09T06:13:37.896Z,83.50
2024-05-09T06:16:05.504Z,82.80
2024-05-09T06:18:35.616Z,84.30
2024-05-09T06:21:03.115Z,83.30
2024-05-09T06:23:35.928Z,82.70
2024-05-09T06:26:04.814Z,82.20
2024-05-09T06:28:34.910Z,82.20
2024-05-09T06:31:02.454Z,79.80
2024-05-09T06:33:32.810Z,80.10
2024-05-09T06:36:00.275Z,80.60
2024-05-09T06:38:30.248Z,80.80
2024-05-09T06:41:00.216Z,81.40
2024-05-09T06:43:30.020Z,80.70
2024-05-09T06:45:57.225Z,78.80
2024-05-09T06:48:27.269Z,76.50
2024-05-09T06:50:54.593Z,78.40
2024-05-09T06:53:25.182Z,74.60
2024-05-09T06:55:55.098Z,73.00
2024-05-09T06:58:24.967Z,75.10
2024-05-09T07:00:54.910Z,72.10
2024-05-09T07:03:22.264Z,74.80
2024-05-09T07:05:52.341Z,72.40
2024-05-09T07:08:19.757Z,70.70
2024-05-09T07:10:49.956Z,71.20
2024-05-09T07:13:17.748Z,71.60
2024-05-09T07:15:50.252Z,71.00
2024-05-09T07:18:19.942Z,70.30
2024-05-09T07:20:51.237Z,70.20
2024-05-09T07:23:18.865Z,69.60
2024-05-09T07:25:48.934Z,69.80
2024-05-09T07:28:16.746Z,68.60
2024-05-09T07:30:46.957Z,72.30
2024-05-09T07:33:21.548Z,69.50
2024-05-09T07:35:53.092Z,67.20
2024-05-09T07:38:20.551Z,69.70
2024-05-09T07:40:50.592Z,71.50
2024-05-09T07:43:17.839Z,68.40
2024-05-09T07:45:53.454Z,66.50
2024-05-09T07:53:39.933Z,69.00
2024-05-09T07:56:15.166Z,66.20
2024-05-09T07:58:43.397Z,64.90
2024-05-09T08:01:13.389Z,63.60
2024-05-09T08:03:43.480Z,64.60
2024-05-09T08:06:13.419Z,65.40
2024-05-09T08:08:40.692Z,64.80
2024-05-09T08:11:10.826Z,64.00
2024-05-09T08:13:38.141Z,63.50
2024-05-09T08:16:08.380Z,63.30
2024-05-09T08:18:35.890Z,62.30
2024-05-09T08:21:08.699Z,63.80
2024-05-09T08:23:36.396Z,65.70
2024-05-09T08:26:06.358Z,63.20
2024-05-09T08:28:33.581Z,66.90
2024-05-09T08:31:06.137Z,64.00
2024-05-09T08:33:34.297Z,60.90
2024-05-09T08:36:04.221Z,61.80
2024-05-09T08:38:34.079Z,62.30
2024-05-09T08:41:06.083Z,65.10
2024-05-09T08:43:33.329Z,62.30
2024-05-09T08:46:03.294Z,60.70
2024-05-09T08:48:31.773Z,60.70
2024-05-09T08:51:02.004Z,61.70
2024-05-09T08:53:29.288Z,60.00
2024-05-09T08:56:04.048Z,60.80
2024-05-09T08:58:32.479Z,61.30
2024-05-09T09:01:02.842Z,60.20
2024-05-09T09:03:30.746Z,60.20
2024-05-09T09:06:02.380Z,60.00
2024-05-09T09:08:29.610Z,60.10
2024-05-09T09:11:03.071Z,59.90
2024-05-09T09:13:30.274Z,60.20
2024-05-09T09:16:02.610Z,59.80
2024-05-09T09:18:30.491Z,61.00
2024-05-09T09:21:00.952Z,60.20
2024-05-09T09:23:29.851Z,60.70
2024-05-09T09:26:03.847Z,62.00
2024-05-09T09:28:31.380Z,60.20
2024-05-09T09:31:05.047Z,58.70
2024-05-09T09:33:33.084Z,58.90
2024-05-09T09:36:03.511Z,60.50
2024-05-09T09:38:31.412Z,59.00
2024-05-09T09:41:04.445Z,59.00
2024-05-09T09:43:32.180Z,59.60
2024-05-09T09:46:03.310Z,60.50
2024-05-09T09:48:31.285Z,61.70
2024-05-09T09:51:01.681Z,58.20
2024-05-09T09:53:29.219Z,57.10
2024-05-09T09:55:59.788Z,57.70
2024-05-09T09:58:30.330Z,57.50
2024-05-09T10:01:00.346Z,55.20
2024-05-09T10:03:27.988Z,55.60
2024-05-09T10:05:58.275Z,54.90
2024-05-09T10:08:25.660Z,54.90
2024-05-09T10:10:55.685Z,54.70
2024-05-09T10:13:32.971Z,56.10
2024-05-09T10:16:10.323Z,53.80
2024-05-09T10:18:37.834Z,54.10
2024-05-09T10:21:18.348Z,55.10
2024-05-09T10:23:56.657Z,54.50
2024-05-09T10:26:33.214Z,54.60
2024-05-09T10:29:03.123Z,57.30
2024-05-09T10:31:35.682Z,51.10
2024-05-09T10:34:03.393Z,50.00
2024-05-09T10:36:33.794Z,52.20
2024-05-09T10:39:01.016Z,54.70
2024-05-09T10:41:30.937Z,51.70
2024-05-09T10:43:58.123Z,51.30
2024-05-09T10:46:28.025Z,47.70
2024-05-09T10:48:58.843Z,49.50
2024-05-09T10:51:29.608Z,50.10
2024-05-09T10:53:59.015Z,49.80
2024-05-09T10:56:29.133Z,53.30
2024-05-09T10:58:56.347Z,49.40
2024-05-09T11:01:26.910Z,50.30
2024-05-09T11:03:54.345Z,52.20
2024-05-09T11:06:27.392Z,51.30
2024-05-09T11:08:54.644Z,53.80
2024-05-09T11:11:24.587Z,54.60
2024-05-09T11:13:51.811Z,52.00
2024-05-09T11:16:22.465Z,52.00
2024-05-09T11:18:54.262Z,53.30
2024-05-09T11:21:27.183Z,51.60
2024-05-09T11:23:54.718Z,55.40
2024-05-09T11:26:25.327Z,49.70
2024-05-09T11:28:52.675Z,51.20
2024-05-09T11:31:22.626Z,48.90
2024-05-09T11:33:50.125Z,51.40
2024-05-09T11:36:20.360Z,49.80
2024-05-09T11:38:50.262Z,48.30
2024-05-09T11:41:20.885Z,50.60
2024-05-09T11:43:48.118Z,51.60
2024-05-09T11:46:18.249Z,54.90
2024-05-09T11:48:45.569Z,49.60
2024-05-09T11:51:15.477Z,51.20
2024-05-09T11:53:42.720Z,50.80
2024-05-09T11:56:15.429Z,51.20
2024-05-09T11:58:42.671Z,48.80
2024-05-09T12:01:12.944Z,48.10
2024-05-09T12:03:40.311Z,48.00
2024-05-09T12:06:10.376Z,48.50
2024-05-09T12:08:37.668Z,48.20
2024-05-09T12:11:08.114Z,49.30
2024-05-09T12:13:38.030Z,50.80
2024-05-09T12:16:08.248Z,53.10
2024-05-09T12:18:35.537Z,50.50
2024-05-09T12:21:05.587Z,51.10
2024-05-09T12:23:32.776Z,50.80
2024-05-09T12:26:02.905Z,54.60
2024-05-09T12:28:30.227Z,49.30
2024-05-09T12:31:02.703Z,51.10
2024-05-09T12:33:30.179Z,49.50
2024-05-09T12:36:00.414Z,51.70
2024-05-09T12:38:27.672Z,51.80
2024-05-09T12:40:57.666Z,47.00
2024-05-09T12:43:25.082Z,48.80
2024-05-09T12:45:55.087Z,45.70
2024-05-09T12:48:25.168Z,44.40
2024-05-09T12:50:57.457Z,45.20
2024-05-09T12:53:26.415Z,42.90
2024-05-09T12:55:59.988Z,51.30
2024-05-09T12:58:29.639Z,47.10
2024-05-09T13:00:59.611Z,45.90
2024-05-09T13:03:29.704Z,51.20
2024-05-09T13:05:59.690Z,46.00
2024-05-09T13:08:27.051Z,45.40
2024-05-09T13:10:56.955Z,48.10
2024-05-09T13:13:24.313Z,49.50
2024-05-09T13:15:54.347Z,54.40
2024-05-09T13:18:21.603Z,49.70
2024-05-09T13:20:54.130Z,52.70
2024-05-09T13:23:21.317Z,50.70
2024-05-09T13:25:51.133Z,46.30
2024-05-09T13:28:18.393Z,49.70
2024-05-09T13:30:48.305Z,44.70
2024-05-09T13:33:15.786Z,51.00
2024-05-09T13:35:49.614Z,50.70
2024-05-09T13:38:21.669Z,47.80
2024-05-09T13:40:51.793Z,45.50
2024-05-09T13:43:20.026Z,46.90
2024-05-09T13:45:50.336Z,51.90
2024-05-09T13:48:17.891Z,50.00
2024-05-09T13:50:47.803Z,47.90
2024-05-09T13:53:15.087Z,44.00
2024-05-09T13:55:47.701Z,48.50
2024-05-09T13:58:15.122Z,46.40
2024-05-09T14:00:48.741Z,46.90
2024-05-09T14:03:18.913Z,42.90
2024-05-09T14:05:51.378Z,45.80
2024-05-09T14:08:21.817Z,44.40
2024-05-09T14:10:54.717Z,44.80
2024-05-09T14:13:22.058Z,44.50
2024-05-09T14:15:52.320Z,50.70
2024-05-09T14:18:19.788Z,50.40
2024-05-09T14:20:49.653Z,48.80
2024-05-09T14:23:17.860Z,51.40
2024-05-09T14:25:51.820Z,49.50
2024-05-09T14:28:22.891Z,45.40
2024-05-09T14:30:53.211Z,46.60
2024-05-09T14:33:26.213Z,55.10
2024-05-09T14:35:56.335Z,53.20
2024-05-09T14:38:23.648Z,46.50
2024-05-09T14:40:53.618Z,46.20
2024-05-09T14:43:23.585Z,44.90
2024-05-09T14:45:53.582Z,47.90
2024-05-09T14:48:21.142Z,44.20
2024-05-09T14:50:51.461Z,43.90
2024-05-09T14:53:18.673Z,45.90
2024-05-09T14:55:49.665Z,42.30
2024-05-09T14:58:17.300Z,44.60
2024-05-09T15:00:51.373Z,46.50
2024-05-09T15:05:59.697Z,44.60
2024-05-09T15:08:26.958Z,45.20
2024-05-09T15:10:57.138Z,44.90
2024-05-09T15:13:24.891Z,45.50
2024-05-09T15:15:57.580Z,53.60
2024-05-09T15:18:24.900Z,46.10
2024-05-09T15:20:55.188Z,51.20
2024-05-09T15:23:22.493Z,53.00
2024-05-09T15:25:52.362Z,52.30
2024-05-09T15:28:22.268Z,45.40
2024-05-09T15:30:49.607Z,46.70
2024-05-09T15:33:22.131Z,46.10
2024-05-09T15:35:51.401Z,49.30
2024-05-09T15:38:21.373Z,51.70
2024-05-09T15:40:48.842Z,54.20
2024-05-09T15:43:18.766Z,46.80
2024-05-09T15:45:46.051Z,47.70
2024-05-09T15:48:16.100Z,48.30
2024-05-09T15:50:48.304Z,48.30
2024-05-09T15:53:18.819Z,50.80
2024-05-09T15:55:46.100Z,48.50
2024-05-09T15:58:16.196Z,48.90
2024-05-09T16:00:45.086Z,51.70
2024-05-09T16:03:16.701Z,51.40
2024-05-09T16:05:47.783Z,51.00
2024-05-09T16:08:18.472Z,45.70
2024-05-09T16:10:47.234Z,49.80
2024-05-09T16:13:30.946Z,47.70
2024-05-09T16:16:01.394Z,49.80
2024-05-09T16:18:31.312Z,49.40
2024-05-09T16:21:01.766Z,45.90
2024-05-09T16:23:32.080Z,47.70
2024-05-09T16:25:59.257Z,44.10
2024-05-09T16:28:29.167Z,42.50
2024-05-09T16:30:56.650Z,43.00
2024-05-09T16:33:26.939Z,49.50
2024-05-09T16:35:54.166Z,47.40
2024-05-09T16:38:26.682Z,43.40
2024-05-09T16:40:53.976Z,43.60
2024-05-09T16:43:24.211Z,44.10
2024-05-09T16:45:51.634Z,43.60
2024-05-09T16:48:22.379Z,43.20
2024-05-09T16:50:49.650Z,43.20
2024-05-09T16:53:19.503Z,43.70
2024-05-09T16:55:49.783Z,46.20
2024-05-09T16:58:19.881Z,44.30
2024-05-09T17:00:47.263Z,45.70
2024-05-09T17:03:17.502Z,46.50
2024-05-09T17:05:46.781Z,48.00
2024-05-09T17:08:18.274Z,47.80
2024-05-09T17:10:46.178Z,49.90
2024-05-09T17:13:19.698Z,47.00
2024-05-09T17:15:54.102Z,50.90
2024-05-09T17:18:24.704Z,53.30
2024-05-09T17:20:54.843Z,53.70
2024-05-09T17:23:22.200Z,55.10
2024-05-09T17:25:52.062Z,56.70
2024-05-09T17:28:22.066Z,55.00
2024-05-09T17:30:52.034Z,56.50
2024-05-09T17:33:19.489Z,58.40
2024-05-09T17:35:50.382Z,58.80
2024-05-09T17:38:17.864Z,59.30
2024-05-09T17:40:47.791Z,59.60
2024-05-09T17:43:15.229Z,60.20
2024-05-09T17:45:48.009Z,59.20
2024-05-09T17:48:15.405Z,57.00
2024-05-09T17:50:45.398Z,56.50
2024-05-09T17:53:12.614Z,54.80
2024-05-09T17:55:45.657Z,54.60
2024-05-09T17:58:13.109Z,55.30
2024-05-09T18:00:44.746Z,56.20
2024-05-09T18:03:16.964Z,56.00
2024-05-09T18:05:46.932Z,56.20
2024-05-09T18:08:14.419Z,58.80
2024-05-09T18:10:44.633Z,59.10
2024-05-09T18:13:12.650Z,61.30
2024-05-09T18:15:42.919Z,62.20
2024-05-09T18:18:10.636Z,63.70
2024-05-09T18:20:45.811Z,64.60
2024-05-09T18:23:16.099Z,65.50
2024-05-09T18:25:48.111Z,65.30
2024-05-09T18:28:16.127Z,65.60
2024-05-09T18:30:46.768Z,66.80
2024-05-09T18:33:14.303Z,65.90
2024-05-09T18:35:47.079Z,66.50
2024-05-09T18:38:14.300Z,66.90
2024-05-09T18:40:47.170Z,67.00
2024-05-09T18:43:16.406Z,66.90
2024-05-09T18:45:47.769Z,67.60
2024-05-09T18:48:15.742Z,68.50
2024-05-09T18:50:48.265Z,69.70
2024-05-09T18:53:16.078Z,70.90
2024-05-09T18:55:46.269Z,71.70
2024-05-09T18:58:16.638Z,71.10
2024-05-09T19:00:49.812Z,71.20
2024-05-09T19:03:18.679Z,73.30
2024-05-09T19:08:32.409Z,74.90
2024-05-09T19:11:02.384Z,74.60
2024-05-09T19:13:30.020Z,74.90
2024-05-09T19:15:59.972Z,75.60
2024-05-09T19:18:27.324Z,76.00
2024-05-09T19:20:59.912Z,76.10
2024-05-09T19:23:27.146Z,76.20
2024-05-09T19:25:56.969Z,76.00
2024-05-09T19:28:24.369Z,76.30
2024-05-09T19:30:54.480Z,76.20
2024-05-09T19:33:21.731Z,76.30
2024-05-09T19:35:53.950Z,77.00
2024-05-09T19:38:23.922Z,77.60
2024-05-09T19:40:54.118Z,78.10
2024-05-09T19:43:21.555Z,77.90
2024-05-09T19:45:54.467Z,78.30
2024-05-09T19:48:21.760Z,78.10
2024-05-09T19:50:53.221Z,78.20
2024-05-09T19:53:20.776Z,78.60
2024-05-09T19:55:53.486Z,78.60
2024-05-09T19:58:20.912Z,79.10
2024-05-09T20:00:51.305Z,79.20
2024-05-09T20:03:18.770Z,79.20
2024-05-09T20:05:48.946Z,79.30
2024-05-09T20:08:16.503Z,79.30
2024-05-09T20:10:46.849Z,79.20
2024-05-09T20:13:17.519Z,79.40
2024-05-09T20:15:47.447Z,79.50
2024-05-09T20:18:17.145Z,79.70
2024-05-09T20:20:48.949Z,80.10
2024-05-09T20:23:17.923Z,80.30
2024-05-09T20:25:47.782Z,80.40
2024-05-09T20:28:17.690Z,80.60
2024-05-09T20:30:47.616Z,80.70
2024-05-09T20:33:14.891Z,80.90
2024-05-09T20:35:44.998Z,80.90
2024-05-09T20:38:12.184Z,81.10
2024-05-09T20:51:54.287Z,81.60
2024-05-09T21:00:59.827Z,81.80
2024-05-09T21:05:58.344Z,81.90
2024-05-09T21:08:28.160Z,82.10
2024-05-09T21:10:58.984Z,82.20
2024-05-09T21:13:26.313Z,82.10
2024-05-09T21:15:56.304Z,82.20
2024-05-09T21:18:23.537Z,82.40
2024-05-09T21:20:53.675Z,82.80
2024-05-09T21:23:20.922Z,82.90
2024-05-09T21:25:53.706Z,82.90
2024-05-09T21:28:21.009Z,82.80
2024-05-09T21:30:50.885Z,82.90
2024-05-09T21:33:19.166Z,82.80
2024-05-09T21:35:49.378Z,82.90
2024-05-09T21:38:16.594Z,82.90
2024-05-09T21:40:46.794Z,83.00
2024-05-09T21:43:16.676Z,83.10
2024-05-09T21:45:46.539Z,83.20
2024-05-09T21:48:14.107Z,83.20
2024-05-09T21:50:44.393Z,83.40
2024-05-09T21:53:12.419Z,83.50
2024-05-09T21:55:43.354Z,83.50
2024-05-09T21:58:10.826Z,83.40
2024-05-09T22:00:45.584Z,83.40
2024-05-09T22:03:13.108Z,83.30
2024-05-09T22:05:44.849Z,83.10
2024-05-09T22:08:12.529Z,82.80
2024-05-09T22:10:42.446Z,82.60
2024-05-09T22:13:10.000Z,82.40
2024-05-09T22:15:41.065Z,82.40
2024-05-09T22:18:11.760Z,82.50
2024-05-09T22:20:45.648Z,82.60
2024-05-09T22:23:14.198Z,82.30
2024-05-09T22:25:44.231Z,82.30
2024-05-09T22:28:12.877Z,82.60
2024-05-09T22:30:43.896Z,82.80
2024-05-09T22:33:13.968Z,82.70
2024-05-09T22:35:43.842Z,82.70
2024-05-09T22:38:11.082Z,83.00
2024-05-09T22:40:47.415Z,83.00
2024-05-09T22:43:17.427Z,83.10
2024-05-09T22:45:47.660Z,83.40
2024-05-09T22:48:17.970Z,83.30
2024-05-09T22:50:47.895Z,83.30
2024-05-09T22:53:15.243Z,83.30
2024-05-09T22:55:45.167Z,83.50
2024-05-09T22:58:12.592Z,83.50
2024-05-09T23:00:42.840Z,83.70
2024-05-09T23:03:10.261Z,83.80
2024-05-09T23:05:42.758Z,83.70
2024-05-09T23:08:10.416Z,83.70
2024-05-09T23:10:40.294Z,83.70
2024-05-09T23:13:08.170Z,83.60
2024-05-09T23:15:39.378Z,83.70
2024-05-09T23:18:07.125Z,83.70
2024-05-09T23:20:39.458Z,84.10
2024-05-09T23:23:11.532Z,84.30
2024-05-09T23:25:42.338Z,84.30
2024-05-09T23:28:09.829Z,84.10
2024-05-09T23:30:41.164Z,84.40
2024-05-09T23:33:10.259Z,84.50
2024-05-09T23:35:40.691Z,84.50
2024-05-09T23:38:10.577Z,84.70
2024-05-09T23:40:41.714Z,84.70
2024-05-09T23:43:10.754Z,84.80
2024-05-09T23:45:41.667Z,84.90
2024-05-09T23:48:09.394Z,85.10
2024-05-09T23:50:40.497Z,85.10
2024-05-09T23:53:11.368Z,85.20
2024-05-09T23:55:41.668Z,85.20
2024-05-09T23:58:09.248Z,85.60
